sensor_id;sensor_type;location;lat;lon;timestamp;P1;durP1;ratioP1;P2;durP2;ratioP2
44480;SDS011;30184;42.018;23.670;2022-10-16T00:02:12;14.38;;;8.30;;
44480;SDS011;30184;42.018;23.670;2022-10-16T00:04:41;18.23;;;9.50;;
44480;SDS011;30184;42.018;23.670;2022-10-16T00:07:11;15.05;;;8.57;;
44480;SDS011;30184;42.018;23.670;2022-10-16T00:09:40;35.08;;;19.02;;
44480;SDS011;30184;42.018;23.670;2022-10-16T00:12:10;20.70;;;11.32;;
44480;SDS011;30184;42.018;23.670;2022-10-16T00:14:39;20.67;;;11.27;;
44480;SDS011;30184;42.018;23.670;2022-10-16T00:17:11;21.05;;;10.00;;
44480;SDS011;30184;42.018;23.670;2022-10-16T00:19:40;15.23;;;9.82;;
44480;SDS011;30184;42.018;23.670;2022-10-16T00:22:27;15.38;;;9.27;;
44480;SDS011;30184;42.018;23.670;2022-10-16T00:24:57;16.20;;;8.57;;
44480;SDS011;30184;42.018;23.670;2022-10-16T00:27:27;14.63;;;9.07;;
44480;SDS011;30184;42.018;23.670;2022-10-16T00:29:57;14.95;;;9.18;;
44480;SDS011;30184;42.018;23.670;2022-10-16T00:32:26;37.25;;;18.88;;
44480;SDS011;30184;42.018;23.670;2022-10-16T00:34:55;25.88;;;13.32;;
44480;SDS011;30184;42.018;23.670;2022-10-16T00:37:24;30.80;;;13.00;;
44480;SDS011;30184;42.018;23.670;2022-10-16T00:39:53;12.73;;;7.55;;
44480;SDS011;30184;42.018;23.670;2022-10-16T00:42:23;17.65;;;9.32;;
44480;SDS011;30184;42.018;23.670;2022-10-16T00:44:54;21.23;;;9.60;;
44480;SDS011;30184;42.018;23.670;2022-10-16T00:47:26;11.95;;;7.00;;
44480;SDS011;30184;42.018;23.670;2022-10-16T00:49:59;11.07;;;6.90;;
44480;SDS011;30184;42.018;23.670;2022-10-16T00:52:34;10.83;;;6.20;;
44480;SDS011;30184;42.018;23.670;2022-10-16T00:55:04;10.13;;;5.57;;
44480;SDS011;30184;42.018;23.670;2022-10-16T00:57:35;13.45;;;6.05;;
44480;SDS011;30184;42.018;23.670;2022-10-16T01:00:08;13.02;;;5.85;;
44480;SDS011;30184;42.018;23.670;2022-10-16T01:02:39;11.00;;;5.75;;
44480;SDS011;30184;42.018;23.670;2022-10-16T01:05:08;13.50;;;7.53;;
44480;SDS011;30184;42.018;23.670;2022-10-16T01:07:41;13.82;;;6.45;;
44480;SDS011;30184;42.018;23.670;2022-10-16T01:10:21;8.85;;;5.82;;
44480;SDS011;30184;42.018;23.670;2022-10-16T01:12:58;11.65;;;6.25;;
44480;SDS011;30184;42.018;23.670;2022-10-16T01:15:31;10.23;;;6.05;;
44480;SDS011;30184;42.018;23.670;2022-10-16T01:18:06;9.90;;;5.28;;
44480;SDS011;30184;42.018;23.670;2022-10-16T01:20:42;15.48;;;8.00;;
44480;SDS011;30184;42.018;23.670;2022-10-16T01:23:19;25.92;;;11.60;;
44480;SDS011;30184;42.018;23.670;2022-10-16T01:26:04;15.15;;;7.88;;
44480;SDS011;30184;42.018;23.670;2022-10-16T01:28:45;18.67;;;8.68;;
44480;SDS011;30184;42.018;23.670;2022-10-16T01:31:18;13.13;;;6.72;;
44480;SDS011;30184;42.018;23.670;2022-10-16T01:33:56;9.90;;;6.22;;
44480;SDS011;30184;42.018;23.670;2022-10-16T01:36:31;11.25;;;6.05;;
44480;SDS011;30184;42.018;23.670;2022-10-16T01:39:07;11.60;;;6.50;;
44480;SDS011;30184;42.018;23.670;2022-10-16T01:41:40;10.25;;;6.13;;
44480;SDS011;30184;42.018;23.670;2022-10-16T01:44:15;10.48;;;6.47;;
44480;SDS011;30184;42.018;23.670;2022-10-16T01:46:48;11.98;;;6.95;;
44480;SDS011;30184;42.018;23.670;2022-10-16T01:49:20;14.70;;;7.57;;
44480;SDS011;30184;42.018;23.670;2022-10-16T01:51:53;11.23;;;6.85;;
44480;SDS011;30184;42.018;23.670;2022-10-16T01:54:25;10.48;;;5.80;;
44480;SDS011;30184;42.018;23.670;2022-10-16T01:56:58;13.05;;;7.32;;
44480;SDS011;30184;42.018;23.670;2022-10-16T01:59:30;12.68;;;7.28;;
44480;SDS011;30184;42.018;23.670;2022-10-16T02:02:04;10.38;;;6.90;;
44480;SDS011;30184;42.018;23.670;2022-10-16T02:04:37;13.68;;;7.80;;
44480;SDS011;30184;42.018;23.670;2022-10-16T02:07:11;13.88;;;6.75;;
44480;SDS011;30184;42.018;23.670;2022-10-16T02:09:40;9.48;;;5.95;;
44480;SDS011;30184;42.018;23.670;2022-10-16T02:12:11;13.50;;;7.25;;
44480;SDS011;30184;42.018;23.670;2022-10-16T02:14:45;11.05;;;6.90;;
44480;SDS011;30184;42.018;23.670;2022-10-16T02:17:16;14.95;;;7.43;;
44480;SDS011;30184;42.018;23.670;2022-10-16T02:19:47;17.52;;;6.93;;
44480;SDS011;30184;42.018;23.670;2022-10-16T02:22:20;15.68;;;7.28;;
44480;SDS011;30184;42.018;23.670;2022-10-16T02:24:54;107.57;;;42.83;;
44480;SDS011;30184;42.018;23.670;2022-10-16T02:27:27;137.18;;;56.38;;
44480;SDS011;30184;42.018;23.670;2022-10-16T02:30:03;130.48;;;52.28;;
44480;SDS011;30184;42.018;23.670;2022-10-16T02:32:38;67.28;;;37.20;;
44480;SDS011;30184;42.018;23.670;2022-10-16T02:35:10;26.42;;;15.13;;
44480;SDS011;30184;42.018;23.670;2022-10-16T02:37:41;34.25;;;18.50;;
44480;SDS011;30184;42.018;23.670;2022-10-16T02:40:11;30.85;;;15.38;;
44480;SDS011;30184;42.018;23.670;2022-10-16T02:42:40;14.60;;;7.18;;
44480;SDS011;30184;42.018;23.670;2022-10-16T02:45:11;10.38;;;6.63;;
44480;SDS011;30184;42.018;23.670;2022-10-16T02:47:40;13.15;;;8.38;;
44480;SDS011;30184;42.018;23.670;2022-10-16T02:50:09;21.38;;;10.32;;
44480;SDS011;30184;42.018;23.670;2022-10-16T02:52:38;17.38;;;9.43;;
44480;SDS011;30184;42.018;23.670;2022-10-16T02:55:08;10.55;;;6.55;;
44480;SDS011;30184;42.018;23.670;2022-10-16T02:57:37;12.20;;;7.30;;
44480;SDS011;30184;42.018;23.670;2022-10-16T03:00:08;18.08;;;7.85;;
44480;SDS011;30184;42.018;23.670;2022-10-16T03:02:41;15.77;;;7.18;;
44480;SDS011;30184;42.018;23.670;2022-10-16T03:05:11;13.30;;;7.45;;
44480;SDS011;30184;42.018;23.670;2022-10-16T03:07:40;15.98;;;7.88;;
44480;SDS011;30184;42.018;23.670;2022-10-16T03:10:09;20.20;;;10.13;;
44480;SDS011;30184;42.018;23.670;2022-10-16T03:12:38;15.65;;;7.82;;
44480;SDS011;30184;42.018;23.670;2022-10-16T03:15:09;15.77;;;8.68;;
44480;SDS011;30184;42.018;23.670;2022-10-16T03:17:39;71.78;;;22.90;;
44480;SDS011;30184;42.018;23.670;2022-10-16T03:20:09;16.70;;;8.30;;
44480;SDS011;30184;42.018;23.670;2022-10-16T03:22:38;31.20;;;12.02;;
44480;SDS011;30184;42.018;23.670;2022-10-16T03:25:08;33.33;;;12.38;;
44480;SDS011;30184;42.018;23.670;2022-10-16T03:27:37;16.85;;;10.27;;
44480;SDS011;30184;42.018;23.670;2022-10-16T03:30:07;12.35;;;7.93;;
44480;SDS011;30184;42.018;23.670;2022-10-16T03:32:38;15.70;;;10.35;;
44480;SDS011;30184;42.018;23.670;2022-10-16T03:35:08;12.98;;;8.48;;
44480;SDS011;30184;42.018;23.670;2022-10-16T03:37:37;15.15;;;8.68;;
44480;SDS011;30184;42.018;23.670;2022-10-16T03:40:07;14.00;;;9.15;;
44480;SDS011;30184;42.018;23.670;2022-10-16T03:42:36;16.65;;;9.88;;
44480;SDS011;30184;42.018;23.670;2022-10-16T03:45:06;14.45;;;9.60;;
44480;SDS011;30184;42.018;23.670;2022-10-16T03:47:35;18.02;;;9.82;;
44480;SDS011;30184;42.018;23.670;2022-10-16T03:50:07;18.83;;;11.40;;
44480;SDS011;30184;42.018;23.670;2022-10-16T03:52:36;16.15;;;10.68;;
44480;SDS011;30184;42.018;23.670;2022-10-16T03:55:06;17.92;;;10.48;;
44480;SDS011;30184;42.018;23.670;2022-10-16T03:57:35;27.58;;;14.98;;
44480;SDS011;30184;42.018;23.670;2022-10-16T04:00:05;18.55;;;10.75;;
44480;SDS011;30184;42.018;23.670;2022-10-16T04:02:38;21.48;;;11.80;;
44480;SDS011;30184;42.018;23.670;2022-10-16T04:05:08;20.40;;;11.48;;
44480;SDS011;30184;42.018;23.670;2022-10-16T04:07:38;23.33;;;12.93;;
44480;SDS011;30184;42.018;23.670;2022-10-16T04:10:07;19.52;;;10.48;;
44480;SDS011;30184;42.018;23.670;2022-10-16T04:12:37;19.58;;;11.85;;
44480;SDS011;30184;42.018;23.670;2022-10-16T04:15:06;17.35;;;9.93;;
44480;SDS011;30184;42.018;23.670;2022-10-16T04:17:37;34.55;;;17.17;;
44480;SDS011;30184;42.018;23.670;2022-10-16T04:20:06;31.98;;;16.60;;
44480;SDS011;30184;42.018;23.670;2022-10-16T04:22:38;26.75;;;10.63;;
44480;SDS011;30184;42.018;23.670;2022-10-16T04:25:07;20.40;;;12.30;;
44480;SDS011;30184;42.018;23.670;2022-10-16T04:27:38;35.38;;;18.23;;
44480;SDS011;30184;42.018;23.670;2022-10-16T04:30:08;53.97;;;25.58;;
44480;SDS011;30184;42.018;23.670;2022-10-16T04:32:39;41.45;;;20.40;;
44480;SDS011;30184;42.018;23.670;2022-10-16T04:35:10;32.17;;;20.00;;
44480;SDS011;30184;42.018;23.670;2022-10-16T04:37:40;19.38;;;11.60;;
44480;SDS011;30184;42.018;23.670;2022-10-16T04:40:10;25.08;;;15.73;;
44480;SDS011;30184;42.018;23.670;2022-10-16T04:42:39;36.20;;;19.58;;
44480;SDS011;30184;42.018;23.670;2022-10-16T04:45:08;32.00;;;14.13;;
44480;SDS011;30184;42.018;23.670;2022-10-16T04:47:38;23.88;;;13.63;;
44480;SDS011;30184;42.018;23.670;2022-10-16T04:50:10;22.08;;;11.63;;
44480;SDS011;30184;42.018;23.670;2022-10-16T04:52:39;21.77;;;11.48;;
44480;SDS011;30184;42.018;23.670;2022-10-16T04:55:08;23.80;;;14.63;;
44480;SDS011;30184;42.018;23.670;2022-10-16T04:57:42;20.65;;;11.82;;
44480;SDS011;30184;42.018;23.670;2022-10-16T05:00:11;18.20;;;10.38;;
44480;SDS011;30184;42.018;23.670;2022-10-16T05:02:41;27.75;;;15.43;;
44480;SDS011;30184;42.018;23.670;2022-10-16T05:05:12;21.25;;;13.07;;
44480;SDS011;30184;42.018;23.670;2022-10-16T05:07:41;30.90;;;17.30;;
44480;SDS011;30184;42.018;23.670;2022-10-16T05:10:10;24.58;;;13.55;;
44480;SDS011;30184;42.018;23.670;2022-10-16T05:12:40;22.98;;;13.10;;
44480;SDS011;30184;42.018;23.670;2022-10-16T05:15:09;24.15;;;13.77;;
44480;SDS011;30184;42.018;23.670;2022-10-16T05:17:42;23.50;;;13.30;;
44480;SDS011;30184;42.018;23.670;2022-10-16T05:20:13;66.75;;;38.17;;
44480;SDS011;30184;42.018;23.670;2022-10-16T05:22:43;30.33;;;17.48;;
44480;SDS011;30184;42.018;23.670;2022-10-16T05:25:12;44.47;;;21.88;;
44480;SDS011;30184;42.018;23.670;2022-10-16T05:27:42;43.72;;;24.55;;
44480;SDS011;30184;42.018;23.670;2022-10-16T05:30:11;66.38;;;32.45;;
44480;SDS011;30184;42.018;23.670;2022-10-16T05:32:40;27.98;;;16.48;;
44480;SDS011;30184;42.018;23.670;2022-10-16T05:35:09;31.40;;;15.48;;
44480;SDS011;30184;42.018;23.670;2022-10-16T05:37:40;28.20;;;16.73;;
44480;SDS011;30184;42.018;23.670;2022-10-16T05:40:09;37.38;;;22.50;;
44480;SDS011;30184;42.018;23.670;2022-10-16T05:42:40;44.35;;;25.48;;
44480;SDS011;30184;42.018;23.670;2022-10-16T05:45:10;55.10;;;28.02;;
44480;SDS011;30184;42.018;23.670;2022-10-16T05:47:40;68.50;;;40.25;;
44480;SDS011;30184;42.018;23.670;2022-10-16T05:50:09;78.03;;;39.17;;
44480;SDS011;30184;42.018;23.670;2022-10-16T05:52:45;118.25;;;61.22;;
44480;SDS011;30184;42.018;23.670;2022-10-16T05:55:14;110.07;;;62.55;;
44480;SDS011;30184;42.018;23.670;2022-10-16T05:57:43;105.22;;;60.53;;
44480;SDS011;30184;42.018;23.670;2022-10-16T06:00:13;82.45;;;56.53;;
44480;SDS011;30184;42.018;23.670;2022-10-16T06:02:42;66.78;;;48.13;;
44480;SDS011;30184;42.018;23.670;2022-10-16T06:05:11;54.53;;;36.60;;
44480;SDS011;30184;42.018;23.670;2022-10-16T06:07:40;75.85;;;43.35;;
44480;SDS011;30184;42.018;23.670;2022-10-16T06:10:11;79.85;;;45.25;;
44480;SDS011;30184;42.018;23.670;2022-10-16T06:12:40;92.95;;;52.25;;
44480;SDS011;30184;42.018;23.670;2022-10-16T06:15:09;111.10;;;58.85;;
44480;SDS011;30184;42.018;23.670;2022-10-16T06:17:38;124.95;;;69.25;;
44480;SDS011;30184;42.018;23.670;2022-10-16T06:20:08;169.82;;;88.47;;
44480;SDS011;30184;42.018;23.670;2022-10-16T06:22:37;121.22;;;69.05;;
44480;SDS011;30184;42.018;23.670;2022-10-16T06:25:06;93.20;;;53.22;;
44480;SDS011;30184;42.018;23.670;2022-10-16T06:27:38;91.82;;;53.90;;
44480;SDS011;30184;42.018;23.670;2022-10-16T06:30:08;53.05;;;32.35;;
44480;SDS011;30184;42.018;23.670;2022-10-16T06:32:38;66.07;;;41.80;;
44480;SDS011;30184;42.018;23.670;2022-10-16T06:35:07;136.05;;;77.70;;
44480;SDS011;30184;42.018;23.670;2022-10-16T06:37:36;122.47;;;69.32;;
44480;SDS011;30184;42.018;23.670;2022-10-16T06:40:06;121.43;;;54.00;;
44480;SDS011;30184;42.018;23.670;2022-10-16T06:42:35;81.95;;;45.75;;
44480;SDS011;30184;42.018;23.670;2022-10-16T06:45:07;69.70;;;44.15;;
44480;SDS011;30184;42.018;23.670;2022-10-16T06:47:37;30.35;;;20.13;;
44480;SDS011;30184;42.018;23.670;2022-10-16T06:50:07;31.75;;;21.10;;
44480;SDS011;30184;42.018;23.670;2022-10-16T06:52:36;40.53;;;25.98;;
44480;SDS011;30184;42.018;23.670;2022-10-16T06:55:06;45.97;;;28.17;;
44480;SDS011;30184;42.018;23.670;2022-10-16T06:57:35;44.85;;;26.80;;
44480;SDS011;30184;42.018;23.670;2022-10-16T07:00:07;33.33;;;23.80;;
44480;SDS011;30184;42.018;23.670;2022-10-16T07:02:36;74.57;;;42.05;;
44480;SDS011;30184;42.018;23.670;2022-10-16T07:05:07;38.83;;;26.88;;
44480;SDS011;30184;42.018;23.670;2022-10-16T07:07:38;41.58;;;26.83;;
44480;SDS011;30184;42.018;23.670;2022-10-16T07:10:08;39.60;;;25.13;;
44480;SDS011;30184;42.018;23.670;2022-10-16T07:12:39;40.97;;;28.88;;
44480;SDS011;30184;42.018;23.670;2022-10-16T07:15:09;49.22;;;29.10;;
44480;SDS011;30184;42.018;23.670;2022-10-16T07:17:40;31.42;;;20.75;;
44480;SDS011;30184;42.018;23.670;2022-10-16T07:20:09;54.20;;;32.38;;
44480;SDS011;30184;42.018;23.670;2022-10-16T07:22:38;26.20;;;16.85;;
44480;SDS011;30184;42.018;23.670;2022-10-16T07:25:08;44.15;;;26.55;;
44480;SDS011;30184;42.018;23.670;2022-10-16T07:27:39;53.90;;;31.25;;
44480;SDS011;30184;42.018;23.670;2022-10-16T07:30:09;38.95;;;19.67;;
44480;SDS011;30184;42.018;23.670;2022-10-16T07:32:38;44.13;;;25.38;;
44480;SDS011;30184;42.018;23.670;2022-10-16T07:35:08;37.63;;;20.38;;
44480;SDS011;30184;42.018;23.670;2022-10-16T07:37:37;38.70;;;23.33;;
44480;SDS011;30184;42.018;23.670;2022-10-16T07:40:07;63.03;;;40.20;;
44480;SDS011;30184;42.018;23.670;2022-10-16T07:42:37;42.42;;;27.92;;
44480;SDS011;30184;42.018;23.670;2022-10-16T07:45:08;64.55;;;31.98;;
44480;SDS011;30184;42.018;23.670;2022-10-16T07:47:38;50.78;;;26.10;;
44480;SDS011;30184;42.018;23.670;2022-10-16T07:50:07;34.47;;;19.85;;
44480;SDS011;30184;42.018;23.670;2022-10-16T07:52:37;28.77;;;16.75;;
44480;SDS011;30184;42.018;23.670;2022-10-16T07:55:07;26.63;;;15.88;;
44480;SDS011;30184;42.018;23.670;2022-10-16T07:57:36;18.27;;;11.60;;
44480;SDS011;30184;42.018;23.670;2022-10-16T08:00:06;13.25;;;9.23;;
44480;SDS011;30184;42.018;23.670;2022-10-16T08:02:41;20.27;;;10.43;;
44480;SDS011;30184;42.018;23.670;2022-10-16T08:05:12;16.38;;;8.52;;
44480;SDS011;30184;42.018;23.670;2022-10-16T08:07:47;11.38;;;7.82;;
44480;SDS011;30184;42.018;23.670;2022-10-16T08:10:17;12.27;;;7.85;;
44480;SDS011;30184;42.018;23.670;2022-10-16T08:12:48;11.40;;;6.80;;
44480;SDS011;30184;42.018;23.670;2022-10-16T08:15:22;12.80;;;6.78;;
44480;SDS011;30184;42.018;23.670;2022-10-16T08:17:55;12.02;;;6.03;;
44480;SDS011;30184;42.018;23.670;2022-10-16T08:20:25;18.60;;;6.78;;
44480;SDS011;30184;42.018;23.670;2022-10-16T08:22:55;9.82;;;6.25;;
44480;SDS011;30184;42.018;23.670;2022-10-16T08:25:25;11.10;;;5.97;;
44480;SDS011;30184;42.018;23.670;2022-10-16T08:27:57;16.88;;;9.63;;
44480;SDS011;30184;42.018;23.670;2022-10-16T08:30:28;15.63;;;7.55;;
44480;SDS011;30184;42.018;23.670;2022-10-16T08:32:57;11.90;;;6.15;;
44480;SDS011;30184;42.018;23.670;2022-10-16T08:35:26;8.18;;;5.57;;
44480;SDS011;30184;42.018;23.670;2022-10-16T08:38:00;11.35;;;6.15;;
44480;SDS011;30184;42.018;23.670;2022-10-16T08:40:32;8.60;;;4.80;;
44480;SDS011;30184;42.018;23.670;2022-10-16T08:43:11;14.70;;;9.35;;
44480;SDS011;30184;42.018;23.670;2022-10-16T08:46:12;8.18;;;5.18;;
44480;SDS011;30184;42.018;23.670;2022-10-16T08:49:02;14.65;;;8.25;;
44480;SDS011;30184;42.018;23.670;2022-10-16T08:51:34;13.23;;;6.30;;
44480;SDS011;30184;42.018;23.670;2022-10-16T08:54:08;7.70;;;4.97;;
44480;SDS011;30184;42.018;23.670;2022-10-16T08:59:47;9.45;;;5.18;;
44480;SDS011;30184;42.018;23.670;2022-10-16T09:02:23;11.57;;;5.68;;
44480;SDS011;30184;42.018;23.670;2022-10-16T09:05:16;7.80;;;4.80;;
44480;SDS011;30184;42.018;23.670;2022-10-16T09:08:04;10.43;;;4.55;;
44480;SDS011;30184;42.018;23.670;2022-10-16T09:10:39;11.40;;;4.82;;
44480;SDS011;30184;42.018;23.670;2022-10-16T09:13:19;11.82;;;4.93;;
44480;SDS011;30184;42.018;23.670;2022-10-16T09:15:55;9.50;;;5.97;;
44480;SDS011;30184;42.018;23.670;2022-10-16T09:18:32;13.00;;;5.13;;
44480;SDS011;30184;42.018;23.670;2022-10-16T09:21:09;12.30;;;6.68;;
44480;SDS011;30184;42.018;23.670;2022-10-16T09:23:44;10.90;;;5.80;;
44480;SDS011;30184;42.018;23.670;2022-10-16T09:26:15;10.13;;;5.75;;
44480;SDS011;30184;42.018;23.670;2022-10-16T09:28:45;9.10;;;5.35;;
44480;SDS011;30184;42.018;23.670;2022-10-16T09:31:18;7.97;;;4.45;;
44480;SDS011;30184;42.018;23.670;2022-10-16T09:33:51;9.10;;;5.10;;
44480;SDS011;30184;42.018;23.670;2022-10-16T09:36:27;6.63;;;4.38;;
44480;SDS011;30184;42.018;23.670;2022-10-16T09:39:01;7.60;;;4.70;;
44480;SDS011;30184;42.018;23.670;2022-10-16T09:41:34;8.68;;;5.07;;
44480;SDS011;30184;42.018;23.670;2022-10-16T09:44:05;11.00;;;5.70;;
44480;SDS011;30184;42.018;23.670;2022-10-16T09:46:46;11.40;;;5.50;;
44480;SDS011;30184;42.018;23.670;2022-10-16T09:49:21;10.65;;;4.60;;
44480;SDS011;30184;42.018;23.670;2022-10-16T09:52:05;11.10;;;6.80;;
44480;SDS011;30184;42.018;23.670;2022-10-16T09:54:52;10.73;;;5.30;;
44480;SDS011;30184;42.018;23.670;2022-10-16T09:57:26;10.35;;;5.20;;
44480;SDS011;30184;42.018;23.670;2022-10-16T10:00:15;7.75;;;4.60;;
44480;SDS011;30184;42.018;23.670;2022-10-16T10:02:53;9.15;;;5.07;;
44480;SDS011;30184;42.018;23.670;2022-10-16T10:05:35;9.40;;;5.00;;
44480;SDS011;30184;42.018;23.670;2022-10-16T10:08:18;8.68;;;4.20;;
44480;SDS011;30184;42.018;23.670;2022-10-16T10:10:49;8.70;;;5.57;;
44480;SDS011;30184;42.018;23.670;2022-10-16T10:13:21;8.05;;;4.38;;
44480;SDS011;30184;42.018;23.670;2022-10-16T10:16:04;6.50;;;4.10;;
44480;SDS011;30184;42.018;23.670;2022-10-16T10:18:37;11.15;;;4.68;;
44480;SDS011;30184;42.018;23.670;2022-10-16T10:21:32;9.50;;;4.28;;
44480;SDS011;30184;42.018;23.670;2022-10-16T10:28:05;6.50;;;4.07;;
44480;SDS011;30184;42.018;23.670;2022-10-16T10:30:54;6.35;;;3.65;;
44480;SDS011;30184;42.018;23.670;2022-10-16T10:33:31;6.57;;;4.25;;
44480;SDS011;30184;42.018;23.670;2022-10-16T10:36:28;9.50;;;3.90;;
44480;SDS011;30184;42.018;23.670;2022-10-16T10:39:07;8.45;;;4.03;;
44480;SDS011;30184;42.018;23.670;2022-10-16T10:42:22;9.68;;;4.82;;
44480;SDS011;30184;42.018;23.670;2022-10-16T10:45:25;6.82;;;3.70;;
44480;SDS011;30184;42.018;23.670;2022-10-16T10:48:17;7.68;;;4.50;;
44480;SDS011;30184;42.018;23.670;2022-10-16T10:50:56;9.23;;;4.50;;
44480;SDS011;30184;42.018;23.670;2022-10-16T10:53:46;6.90;;;4.22;;
44480;SDS011;30184;42.018;23.670;2022-10-16T10:56:39;6.72;;;3.92;;
44480;SDS011;30184;42.018;23.670;2022-10-16T10:59:31;9.07;;;5.20;;
44480;SDS011;30184;42.018;23.670;2022-10-16T11:02:26;11.55;;;5.70;;
44480;SDS011;30184;42.018;23.670;2022-10-16T11:05:41;10.32;;;5.35;;
44480;SDS011;30184;42.018;23.670;2022-10-16T11:11:34;5.18;;;3.35;;
44480;SDS011;30184;42.018;23.670;2022-10-16T11:14:34;7.85;;;3.78;;
44480;SDS011;30184;42.018;23.670;2022-10-16T11:17:33;8.32;;;4.18;;
44480;SDS011;30184;42.018;23.670;2022-10-16T11:20:16;6.93;;;3.92;;
44480;SDS011;30184;42.018;23.670;2022-10-16T11:27:23;11.13;;;5.35;;
44480;SDS011;30184;42.018;23.670;2022-10-16T11:30:49;5.23;;;3.13;;
44480;SDS011;30184;42.018;23.670;2022-10-16T11:33:42;6.38;;;3.80;;
44480;SDS011;30184;42.018;23.670;2022-10-16T11:36:19;4.97;;;3.00;;
44480;SDS011;30184;42.018;23.670;2022-10-16T11:39:03;15.00;;;5.93;;
44480;SDS011;30184;42.018;23.670;2022-10-16T11:41:43;6.85;;;3.90;;
44480;SDS011;30184;42.018;23.670;2022-10-16T11:44:24;7.43;;;3.13;;
44480;SDS011;30184;42.018;23.670;2022-10-16T11:47:08;10.05;;;3.45;;
44480;SDS011;30184;42.018;23.670;2022-10-16T11:50:17;6.38;;;3.88;;
44480;SDS011;30184;42.018;23.670;2022-10-16T11:52:55;5.43;;;3.35;;
44480;SDS011;30184;42.018;23.670;2022-10-16T11:55:32;8.52;;;3.65;;
44480;SDS011;30184;42.018;23.670;2022-10-16T11:58:07;5.78;;;3.63;;
44480;SDS011;30184;42.018;23.670;2022-10-16T12:00:47;8.65;;;3.30;;
44480;SDS011;30184;42.018;23.670;2022-10-16T12:03:28;5.80;;;2.90;;
44480;SDS011;30184;42.018;23.670;2022-10-16T12:06:06;6.20;;;3.13;;
44480;SDS011;30184;42.018;23.670;2022-10-16T12:09:00;7.63;;;3.83;;
44480;SDS011;30184;42.018;23.670;2022-10-16T12:11:32;5.63;;;3.20;;
44480;SDS011;30184;42.018;23.670;2022-10-16T12:14:17;6.07;;;3.45;;
44480;SDS011;30184;42.018;23.670;2022-10-16T12:16:54;8.65;;;3.55;;
44480;SDS011;30184;42.018;23.670;2022-10-16T12:19:56;7.72;;;3.05;;
44480;SDS011;30184;42.018;23.670;2022-10-16T12:22:27;8.82;;;4.10;;
44480;SDS011;30184;42.018;23.670;2022-10-16T12:25:01;7.95;;;3.88;;
44480;SDS011;30184;42.018;23.670;2022-10-16T12:27:41;5.75;;;3.00;;
44480;SDS011;30184;42.018;23.670;2022-10-16T12:30:14;5.78;;;3.28;;
44480;SDS011;30184;42.018;23.670;2022-10-16T12:32:58;7.43;;;4.20;;
44480;SDS011;30184;42.018;23.670;2022-10-16T12:35:31;5.65;;;2.60;;
44480;SDS011;30184;42.018;23.670;2022-10-16T12:38:05;4.85;;;3.17;;
44480;SDS011;30184;42.018;23.670;2022-10-16T12:41:08;7.57;;;3.28;;
44480;SDS011;30184;42.018;23.670;2022-10-16T12:43:40;6.00;;;3.47;;
44480;SDS011;30184;42.018;23.670;2022-10-16T12:46:50;4.78;;;2.60;;
44480;SDS011;30184;42.018;23.670;2022-10-16T12:53:42;8.35;;;3.72;;
44480;SDS011;30184;42.018;23.670;2022-10-16T12:56:22;13.07;;;5.03;;
44480;SDS011;30184;42.018;23.670;2022-10-16T12:59:49;18.42;;;6.22;;
44480;SDS011;30184;42.018;23.670;2022-10-16T13:02:38;16.83;;;4.22;;
44480;SDS011;30184;42.018;23.670;2022-10-16T13:05:43;6.85;;;3.03;;
44480;SDS011;30184;42.018;23.670;2022-10-16T13:08:28;7.20;;;3.15;;
44480;SDS011;30184;42.018;23.670;2022-10-16T13:11:09;5.68;;;3.33;;
44480;SDS011;30184;42.018;23.670;2022-10-16T13:16:54;26.65;;;4.95;;
44480;SDS011;30184;42.018;23.670;2022-10-16T13:19:42;6.50;;;3.10;;
44480;SDS011;30184;42.018;23.670;2022-10-16T13:22:23;17.60;;;5.90;;
44480;SDS011;30184;42.018;23.670;2022-10-16T13:25:05;9.35;;;3.85;;
44480;SDS011;30184;42.018;23.670;2022-10-16T13:27:54;5.40;;;2.72;;
44480;SDS011;30184;42.018;23.670;2022-10-16T13:30:26;30.00;;;9.82;;
44480;SDS011;30184;42.018;23.670;2022-10-16T13:32:59;15.88;;;6.45;;
44480;SDS011;30184;42.018;23.670;2022-10-16T13:35:30;11.10;;;4.65;;
44480;SDS011;30184;42.018;23.670;2022-10-16T13:38:09;5.70;;;3.35;;
44480;SDS011;30184;42.018;23.670;2022-10-16T13:40:53;19.52;;;8.07;;
44480;SDS011;30184;42.018;23.670;2022-10-16T13:43:26;56.28;;;6.95;;
44480;SDS011;30184;42.018;23.670;2022-10-16T13:46:01;19.27;;;7.82;;
44480;SDS011;30184;42.018;23.670;2022-10-16T13:48:33;9.57;;;6.60;;
44480;SDS011;30184;42.018;23.670;2022-10-16T13:51:16;8.52;;;4.25;;
44480;SDS011;30184;42.018;23.670;2022-10-16T13:53:49;7.75;;;4.40;;
44480;SDS011;30184;42.018;23.670;2022-10-16T13:56:21;7.05;;;4.35;;
44480;SDS011;30184;42.018;23.670;2022-10-16T13:58:59;7.93;;;4.38;;
44480;SDS011;30184;42.018;23.670;2022-10-16T14:01:31;3.70;;;1.90;;
44480;SDS011;30184;42.018;23.670;2022-10-16T14:04:03;5.13;;;2.90;;
44480;SDS011;30184;42.018;23.670;2022-10-16T14:06:40;6.07;;;2.63;;
44480;SDS011;30184;42.018;23.670;2022-10-16T14:09:18;7.85;;;3.03;;
44480;SDS011;30184;42.018;23.670;2022-10-16T14:14:22;4.50;;;2.70;;
44480;SDS011;30184;42.018;23.670;2022-10-16T14:16:53;4.40;;;2.60;;
44480;SDS011;30184;42.018;23.670;2022-10-16T14:19:23;3.38;;;2.03;;
44480;SDS011;30184;42.018;23.670;2022-10-16T14:21:58;4.27;;;2.70;;
44480;SDS011;30184;42.018;23.670;2022-10-16T14:24:32;3.97;;;2.15;;
44480;SDS011;30184;42.018;23.670;2022-10-16T14:30:03;5.35;;;2.60;;
44480;SDS011;30184;42.018;23.670;2022-10-16T14:32:52;7.00;;;3.78;;
44480;SDS011;30184;42.018;23.670;2022-10-16T14:35:24;15.95;;;5.50;;
44480;SDS011;30184;42.018;23.670;2022-10-16T14:37:55;7.93;;;3.78;;
44480;SDS011;30184;42.018;23.670;2022-10-16T14:40:28;7.70;;;4.00;;
44480;SDS011;30184;42.018;23.670;2022-10-16T14:43:00;8.40;;;3.47;;
44480;SDS011;30184;42.018;23.670;2022-10-16T14:45:30;8.00;;;4.28;;
44480;SDS011;30184;42.018;23.670;2022-10-16T14:48:04;5.72;;;3.13;;
44480;SDS011;30184;42.018;23.670;2022-10-16T14:50:44;5.20;;;3.25;;
44480;SDS011;30184;42.018;23.670;2022-10-16T14:53:14;9.60;;;5.07;;
44480;SDS011;30184;42.018;23.670;2022-10-16T14:55:46;29.08;;;14.07;;
44480;SDS011;30184;42.018;23.670;2022-10-16T14:58:16;11.10;;;6.75;;
44480;SDS011;30184;42.018;23.670;2022-10-16T15:00:48;7.95;;;4.03;;
44480;SDS011;30184;42.018;23.670;2022-10-16T15:03:18;58.70;;;30.42;;
44480;SDS011;30184;42.018;23.670;2022-10-16T15:05:48;25.02;;;11.60;;
44480;SDS011;30184;42.018;23.670;2022-10-16T15:08:17;12.77;;;7.13;;
44480;SDS011;30184;42.018;23.670;2022-10-16T15:10:48;145.38;;;80.97;;
44480;SDS011;30184;42.018;23.670;2022-10-16T15:13:18;94.10;;;42.85;;
44480;SDS011;30184;42.018;23.670;2022-10-16T15:15:48;18.25;;;9.18;;
44480;SDS011;30184;42.018;23.670;2022-10-16T15:18:20;12.15;;;5.25;;
44480;SDS011;30184;42.018;23.670;2022-10-16T15:20:50;18.05;;;12.43;;
44480;SDS011;30184;42.018;23.670;2022-10-16T15:23:21;9.43;;;5.40;;
44480;SDS011;30184;42.018;23.670;2022-10-16T15:25:54;11.35;;;6.70;;
44480;SDS011;30184;42.018;23.670;2022-10-16T15:28:24;10.98;;;6.22;;
44480;SDS011;30184;42.018;23.670;2022-10-16T15:30:55;13.93;;;7.13;;
44480;SDS011;30184;42.018;23.670;2022-10-16T15:33:27;19.88;;;12.20;;